Have a Safe July 4th! 

Flight Track Log - Related Links

Times and Time Zones

All times are in EDT time to prevent confusion due to time zone crossing. See the N37227 flight status page for this flight to view local times or setup timezone preferences in your user account.

Time Position Orientation Groundspeed Altitude Reporting Facility
EDT Latitude Longitude Course Direction KTS MPH feet Rate Location/Type
Wed 07:06:11 AM 26.3625 -80.1256 307° West 145 167 500  Level Miami Center
Wed 07:07:11 AM 26.3806 -80.1522 307° West 126 145 1,500 992 Climbing Miami Center
Wed 07:08:12 AM 26.4119 -80.1700 333° Northwest 127 146 2,500 885 Climbing Miami Center
Wed 07:09:13 AM 26.4461 -80.1900 332° Northwest 138 159 3,300 893 Climbing Miami Center
Wed 07:10:13 AM 26.4853 -80.2114 334° Northwest 145 167 4,300 942 Climbing Miami Center
Wed 07:11:14 AM 26.5231 -80.2317 334° Northwest 149 171 5,200 836 Climbing Miami Center
Wed 07:12:15 AM 26.5633 -80.2506 337° Northwest 155 178 6,000 590 Climbing Miami Center
Wed 07:13:16 AM 26.6061 -80.2683 340° North 164 189 6,400 198 Climbing Miami Center
Wed 07:14:16 AM 26.6550 -80.2881 340° North 186 214 6,400  Level Miami Center
Wed 07:15:17 AM 26.7044 -80.3089 339° North 188 216 6,400  Level Miami Center
Wed 07:16:18 AM 26.7578 -80.3275 343° North 181 208 6,400  Level Miami Center
Wed 07:17:19 AM 26.8078 -80.3458 342° North 188 216 6,400 -49 Level Miami Center
Wed 07:18:20 AM 26.8547 -80.3675 338° Northwest 188 216 6,300  Descending Miami Center
Wed 07:19:20 AM 26.9039 -80.3844 343° North 189 217 6,400 50 Climbing Miami Center
Wed 07:20:21 AM 26.9600 -80.4086 339° North 189 217 6,400  Level Miami Center
Wed 07:21:22 AM 27.0064 -80.4261 341° North 187 215 6,400  Level Miami Center
Wed 07:22:23 AM 27.0583 -80.4467 341° North 186 214 6,400  Level Miami Center
Wed 07:23:24 AM 27.1094 -80.4694 338° Northwest 187 215 6,400  Level Miami Center
Wed 07:24:25 AM 27.1569 -80.4900 339° North 189 217 6,400  Level Miami Center
Wed 07:25:26 AM 27.2075 -80.5114 339° North 189 217 6,400  Level Miami Center
Wed 07:26:27 AM 27.2542 -80.5317 339° North 189 217 6,400  Level Miami Center
Wed 07:27:28 AM 27.3056 -80.5556 338° Northwest 189 217 6,400  Level Miami Center
Wed 07:28:29 AM 27.3525 -80.5772 338° Northwest 189 217 6,400  Level Miami Center
Wed 07:29:30 AM 27.4022 -80.6006 337° Northwest 188 216 6,400  Level Miami Center
Wed 07:30:30 AM 27.4531 -80.6236 338° Northwest 188 216 6,400  Level Miami Center
Wed 07:31:32 AM 27.5022 -80.6486 336° Northwest 187 215 6,400  Level Miami Center
Wed 07:32:33 AM 27.5472 -80.6717 336° Northwest 186 214 6,400  Level Miami Center
Wed 07:33:34 AM 27.5978 -80.6950 338° Northwest 186 214 6,400  Level Miami Center
Wed 07:34:35 AM 27.6478 -80.7197 336° Northwest 187 215 6,400  Level Miami Center
Wed 07:35:36 AM 27.6931 -80.7428 336° Northwest 190 219 6,400  Level Miami Center
Wed 07:36:37 AM 27.7433 -80.7658 338° Northwest 189 217 6,400  Level Miami Center
Wed 07:37:38 AM 27.7922 -80.7906 336° Northwest 187 215 6,400  Level Miami Center
Wed 07:38:39 AM 27.8386 -80.8119 338° Northwest 187 215 6,400  Level Miami Center
Wed 07:39:40 AM 27.8883 -80.8367 336° Northwest 186 214 6,400  Level Miami Center
Wed 07:40:41 AM 27.9372 -80.8611 336° Northwest 186 214 6,400  Level Miami Center
Wed 07:41:42 AM 27.9858 -80.8861 336° Northwest 186 214 6,400  Level Miami Center
Wed 07:42:43 AM 28.0297 -80.9100 334° Northwest 184 212 6,400 -195 Level Miami Center
Wed 07:43:45 AM 28.0783 -80.9386 333° Northwest 186 214 6,000 -488 Descending Miami Center
Wed 07:44:46 AM 28.1208 -80.9628 333° Northwest 194 223 5,400 -541 Descending Miami Center
Wed 07:45:47 AM 28.1725 -80.9858 339° North 197 227 4,900 -492 Descending Miami Center
Wed 07:46:48 AM 28.2225 -81.0111 336° Northwest 197 227 4,400 -492 Descending Miami Center
Wed 07:47:49 AM 28.2733 -81.0353 337° Northwest 197 227 3,900 -488 Descending Miami Center
Wed 07:48:51 AM 28.3333 -81.0644 337° Northwest 195 224 3,400 -293 Descending Miami Center
Wed 07:49:52 AM 28.3806 -81.0861 338° Northwest 186 214 3,300 -98 Descending Miami Center
Wed 07:50:53 AM 28.4242 -81.1081 336° Northwest 174 200 3,200 -295 Descending Miami Center
Wed 07:51:54 AM 28.4719 -81.1319 336° Northwest 179 206 2,700 -590 Descending Miami Center
Wed 07:52:55 AM 28.5197 -81.1533 339° North 186 214 2,000 -537 Descending Miami Center
Wed 07:53:57 AM 28.5669 -81.1722 341° North 182 209 1,600 -390 Descending Miami Center
Wed 07:54:58 AM 28.6017 -81.2036 322° Northwest 178 205 1,200 -246 Descending Miami Center
Wed 07:55:59 AM 28.5733 -81.2564 239° Southwest 168 193 1,100 -344 Descending Miami Center
Wed 07:57:00 AM 28.5583 -81.2964 247° West 141 162 500 -590 Descending Miami Center

Login

Don't have an account? Register now (free) for customized features, flight alerts, and more!